Terminal Aerodrome Forecast
Issued by NWS

Home | Current Version | Previous Version | Graphics & Text | Print | Product List | Glossary On
Versions: 1 2 3 4 5 6 7 8 9 10 11 12 13 14 15 16 17 18
000
FTUS43 KICT 011006 AAA
TAFHUT
TAF AMD
KHUT 011006Z 0110/0206 30004KT P6SM SCT020 BKN035
      TEMPO 0110/0114 BKN015
     FM011400 31011KT P6SM OVC015
     FM011700 33013KT P6SM OVC025=

USA.gov is the U.S. government's official web portal to all federal, state and local government web resources and services.